Observations for NAPLES CAPODICHINO, Italy (LIRN)

LIRN 170050Z 05004KT CAVOK 20/09 Q1012 NOSIG
LIRN 170020Z 35004KT CAVOK 20/09 Q1012 NOSIG
LIRN 162350Z 29004KT CAVOK 19/09 Q1012 NOSIG
LIRN 162320Z 35003KT 320V040 CAVOK 20/09 Q1012 NOSIG
LIRN 162250Z VRB02KT CAVOK 20/09 Q1012 NOSIG
LIRN 162220Z 11003KT CAVOK 22/09 Q1012 NOSIG
LIRN 162150Z 01003KT 330V050 CAVOK 21/09 Q1012 NOSIG
LIRN 162120Z VRB02KT CAVOK 23/09 Q1012 NOSIG
LIRN 162050Z 06003KT CAVOK 24/09 Q1012 NOSIG
LIRN 162020Z VRB02KT CAVOK 24/10 Q1012 NOSIG
LIRN 161950Z 10002KT CAVOK 24/10 Q1012 NOSIG
LIRN 161920Z 10003KT 080V140 9999 FEW040 25/10 Q1011 NOSIG  
LIRN 161850Z 05004KT 340V120 9999 FEW030 25/10 Q1011 NOSIG  
LIRN 161820Z 06006KT 9999 FEW030 25/10 Q1011 NOSIG  
LIRN 161750Z 05008KT 9999 FEW030 26/11 Q1010 NOSIG  
LIRN 161720Z 05009KT 350V090 9999 FEW030 27/11 Q1010 NOSIG  
LIRN 161650Z 04011KT 350V110 9999 FEW030 28/12 Q1010 NOSIG  
LIRN 161620Z 04011KT 020V090 9999 FEW030 28/12 Q1009 NOSIG  
LIRN 161550Z 04011KT 010V070 9999 FEW030 SCT080 27/13 Q1009 NOSIG   
LIRN 161520Z 04010KT 010V070 9999 FEW025 SCT080 28/13 Q1009 NOSIG   
LIRN 161450Z 05011KT 020V080 9999 FEW025 SCT080 27/13 Q1009 NOSIG   
LIRN 161420Z 05013KT 9999 FEW025 SCT080 27/14 Q1009 NOSIG   
LIRN 161350Z 05011KT 9999 FEW025 SCT080 28/14 Q1009 NOSIG   
LIRN 161320Z 06014KT 9999 FEW025 SCT080 27/13 Q1009 NOSIG   
LIRN 161250Z 04017KT 340V080 9999 FEW025 SCT050 29/14 Q1008 NOSIG   
LIRN 161220Z 07011KT 040V100 9999 FEW025 SCT050 28/13 Q1008 NOSIG   
LIRN 161150Z 06015KT 9999 FEW025 SCT050 28/12 Q1008 NOSIG   
LIRN 161120Z 07015G26KT 050V110 9999 FEW025 SCT050 28/12 Q1008 NOSIG
LIRN 161050Z 06014KT 9999 SCT045 28/13 Q1008 NOSIG  
LIRN 161020Z 07016KT 040V120 9999 SCT045 27/13 Q1008 NOSIG  
LIRN 160950Z 05014KT 360V090 9999 SCT045 27/14 Q1008 NOSIG  
LIRN 160920Z 06015KT 9999 SCT045 26/14 Q1008 NOSIG  
LIRN 160850Z 06013KT 9999 SCT045 26/14 Q1008 NOSIG  
LIRN 160820Z 06014KT 9999 SCT045 25/14 Q1007 NOSIG  
LIRN 160750Z 04012KT 350V060 9999 SCT045 24/14 Q1007 NOSIG  
LIRN 160720Z 04014KT 9999 FEW045 24/14 Q1007 NOSIG  
LIRN 160650Z 07014KT 9999 FEW045 24/13 Q1006 NOSIG  
LIRN 160620Z 05012KT 9999 FEW045 SCT060 23/14 Q1006 NOSIG   
LIRN 160550Z 06014KT 9999 FEW045 SCT060 23/14 Q1006 NOSIG   
LIRN 160520Z 04012KT 9999 BKN060 22/15 Q1006 NOSIG  
LIRN 160450Z 04014KT 9999 BKN060 21/15 Q1006 NOSIG  
LIRN 160420Z 05012KT 9999 BKN060 21/14 Q1006 NOSIG  
LIRN 160350Z 04011KT 9999 BKN070 21/14 Q1006 NOSIG  
LIRN 160320Z 05014KT 9999 BKN070 22/14 Q1006 NOSIG  
LIRN 160250Z 07011KT 9999 BKN070 22/14 Q1006 NOSIG  
LIRN 160220Z 05012KT 9999 BKN070 22/14 Q1006 NOSIG  
LIRN 160150Z 04015KT 9999 BKN070 22/14 Q1006 NOSIG  
LIRN 160120Z 04009KT 010V070 9999 BKN070 22/15 Q1006 NOSIG  
LIRN 160050Z 06010KT 9999 BKN070 22/15 Q1006 NOSIG  
LIRN 160020Z 07015KT 9999 BKN070 23/15 Q1005 NOSIG